Time;durP1;ratioP1;P1;durP2;ratioP2;P2;SDS_P1;SDS_P2;PMS_P1;PMS_P2;Temp;Humidity;BMP_temperature;BMP_pressure;BME280_temperature;BME280_humidity;BME280_pressure;Samples;Min_cycle;Max_cycle;Signal;HPM_P1;HPM_P2
2022/03/05 00:00:32;;;;;;;8.30;4.53;;;;;;;;;;4981750;28;20419;-84
2022/03/05 00:02:59;;;;;;;13.70;5.97;;;-2.40;99.90;;;;;;4980504;28;20404;-84
2022/03/05 00:05:25;;;;;;;12.93;5.53;;;;;;;;;;4979362;28;20810;-84
2022/03/05 00:07:51;;;;;;;10.17;4.97;;;;;;;;;;4978746;28;20479;-84
2022/03/05 00:10:19;;;;;;;11.57;6.03;;;;;;;;;;4978495;28;20447;-85
2022/03/05 00:12:45;;;;;;;12.17;6.53;;;-2.50;99.90;;;;;;4982498;28;20424;-85
2022/03/05 00:15:12;;;;;;;8.17;5.30;;;;;;;;;;4980682;28;20829;-85
2022/03/05 00:17:38;;;;;;;12.77;5.93;;;;;;;;;;4980943;28;20907;-84
2022/03/05 00:20:05;;;;;;;12.03;5.60;;;-2.50;99.90;;;;;;4978950;28;20455;-85
2022/03/05 00:22:32;;;;;;;11.33;6.27;;;-2.50;99.90;;;;;;4979000;28;20424;-84
2022/03/05 00:24:58;;;;;;;12.43;6.50;;;;;;;;;;4980528;28;20435;-85
2022/03/05 00:27:24;;;;;;;10.47;5.73;;;;;;;;;;4980424;28;20416;-85
2022/03/05 00:29:51;;;;;;;11.43;5.97;;;;;;;;;;4978618;28;20429;-85
2022/03/05 00:32:16;;;;;;;12.33;6.57;;;-2.70;99.90;;;;;;4980230;28;20423;-85
2022/03/05 00:34:42;;;;;;;10.67;5.90;;;-2.80;99.90;;;;;;4979845;28;20439;-85
2022/03/05 00:37:08;;;;;;;14.37;6.43;;;-2.80;99.90;;;;;;4978655;28;20216;-85
2022/03/05 00:39:34;;;;;;;15.30;7.23;;;-3.00;99.90;;;;;;4980107;28;20248;-85
2022/03/05 00:42:00;;;;;;;13.87;7.23;;;-3.00;99.90;;;;;;4979272;28;20511;-85
2022/03/05 00:44:26;;;;;;;16.00;6.97;;;-3.00;99.90;;;;;;4979366;28;20196;-85
2022/03/05 00:46:51;;;;;;;15.20;7.57;;;-3.00;99.90;;;;;;4979782;28;20215;-85
2022/03/05 00:49:17;;;;;;;16.00;7.17;;;-3.20;99.90;;;;;;4980384;28;20177;-85
2022/03/05 00:51:42;;;;;;;12.80;6.77;;;-3.00;99.90;;;;;;4979009;28;20176;-85
2022/03/05 00:54:08;;;;;;;12.97;6.50;;;-3.10;99.90;;;;;;4978853;28;20227;-85
2022/03/05 00:56:34;;;;;;;19.57;8.37;;;-3.10;99.90;;;;;;4979474;28;20172;-85
2022/03/05 00:59:00;;;;;;;14.77;7.50;;;-2.00;99.90;;;;;;4980122;28;20285;-85
2022/03/05 01:01:26;;;;;;;11.07;6.47;;;-3.10;99.90;;;;;;4979535;28;20435;-85
2022/03/05 01:03:51;;;;;;;11.20;6.17;;;-3.10;99.90;;;;;;4978669;28;20211;-85
2022/03/05 01:06:17;;;;;;;15.47;7.60;;;-2.10;99.90;;;;;;4982284;28;20279;-85
2022/03/05 01:08:43;;;;;;;17.77;7.50;;;-3.20;99.90;;;;;;4980420;28;20227;-85
2022/03/05 01:11:09;;;;;;;14.67;7.37;;;-3.30;99.90;;;;;;4979249;28;20185;-85
2022/03/05 01:13:36;;;;;;;15.43;7.87;;;-3.30;99.90;;;;;;4981165;28;20285;-85
2022/03/05 01:16:02;;;;;;;14.90;7.43;;;;;;;;;;4978663;28;20221;-85
2022/03/05 01:18:28;;;;;;;15.07;7.30;;;;;;;;;;4979088;28;20471;-85
2022/03/05 01:20:54;;;;;;;13.13;7.37;;;-3.40;99.90;;;;;;4978922;28;20415;-85
2022/03/05 01:23:19;;;;;;;15.97;7.63;;;-3.50;99.90;;;;;;4978491;28;20427;-85
2022/03/05 01:25:45;;;;;;;15.17;7.60;;;-3.50;99.90;;;;;;4979917;28;20235;-85
2022/03/05 01:28:11;;;;;;;14.33;7.90;;;-2.90;99.90;;;;;;4978502;28;20204;-85
2022/03/05 01:30:38;;;;;;;15.10;6.80;;;-3.60;99.90;;;;;;4980347;28;20211;-85
2022/03/05 01:33:04;;;;;;;14.70;8.30;;;-2.90;99.90;;;;;;4980083;28;20196;-85
2022/03/05 01:35:30;;;;;;;19.13;8.57;;;-3.60;99.90;;;;;;4978789;28;20430;-85
2022/03/05 01:37:56;;;;;;;16.93;8.03;;;-3.70;99.90;;;;;;4978127;28;20541;-85
2022/03/05 01:40:22;;;;;;;18.53;8.53;;;-3.60;99.90;;;;;;4978826;28;20185;-85
2022/03/05 01:42:48;;;;;;;17.30;7.40;;;-3.60;99.90;;;;;;4979760;28;20423;-85
2022/03/05 01:45:14;;;;;;;18.80;8.60;;;-3.60;99.90;;;;;;4980125;28;20913;-85
2022/03/05 01:47:40;;;;;;;21.93;7.77;;;;;;;;;;4979149;28;20216;-85
2022/03/05 01:50:07;;;;;;;15.63;7.73;;;-3.80;99.90;;;;;;4978189;28;20186;-85
2022/03/05 01:52:32;;;;;;;14.20;7.13;;;-3.80;99.90;;;;;;4978641;28;20889;-85
2022/03/05 01:54:58;;;;;;;16.73;7.77;;;-3.80;99.90;;;;;;4978910;28;20471;-85
2022/03/05 01:57:24;;;;;;;16.87;7.47;;;-3.80;99.90;;;;;;4978518;28;20212;-85
2022/03/05 01:59:50;;;;;;;18.00;8.13;;;-3.90;99.90;;;;;;4978665;28;20791;-86
2022/03/05 02:02:17;;;;;;;14.50;7.63;;;-4.00;99.90;;;;;;4980421;28;20241;-85
2022/03/05 02:04:43;;;;;;;13.90;7.13;;;-4.00;99.90;;;;;;4978714;28;20204;-85
2022/03/05 02:07:09;;;;;;;13.37;7.13;;;-4.00;99.90;;;;;;4980035;28;20499;-85
2022/03/05 02:09:35;;;;;;;16.07;7.17;;;-1.90;99.90;;;;;;4979713;28;20188;-85
2022/03/05 02:12:01;;;;;;;16.30;7.77;;;-3.90;99.90;;;;;;4979673;28;20506;-85
2022/03/05 02:14:26;;;;;;;14.83;7.17;;;-4.00;99.90;;;;;;4979878;28;20514;-85
2022/03/05 02:16:52;;;;;;;15.43;6.93;;;-4.00;99.90;;;;;;4979038;28;20185;-85
2022/03/05 02:19:17;;;;;;;14.00;6.93;;;-4.10;99.90;;;;;;4978330;28;20208;-85
2022/03/05 02:21:46;;;;;;;14.83;7.00;;;-4.10;99.90;;;;;;4978125;28;20177;-85
2022/03/05 02:24:12;;;;;;;13.07;6.07;;;;;;;;;;4978635;28;20211;-85
2022/03/05 02:26:38;;;;;;;11.63;6.50;;;-4.20;99.90;;;;;;4978216;28;20430;-85
2022/03/05 02:29:03;;;;;;;15.13;7.13;;;-4.20;99.90;;;;;;4978075;28;20510;-85
2022/03/05 02:31:29;;;;;;;14.87;6.47;;;-2.70;99.90;;;;;;4979534;28;20725;-85
2022/03/05 02:33:55;;;;;;;13.97;7.43;;;-4.30;99.90;;;;;;4979235;28;20207;-85
2022/03/05 02:36:23;;;;;;;10.87;6.07;;;-4.30;99.90;;;;;;4978407;28;20274;-85
2022/03/05 02:38:50;;;;;;;17.53;7.13;;;-2.90;99.90;;;;;;4977893;28;20467;-85
2022/03/05 02:41:18;;;;;;;13.53;7.13;;;-4.30;99.90;;;;;;4978797;28;20414;-85
2022/03/05 02:43:44;;;;;;;14.63;6.50;;;-4.30;99.90;;;;;;4979116;28;20436;-85
2022/03/05 02:46:10;;;;;;;14.60;7.20;;;-4.40;99.90;;;;;;4978778;28;20443;-85
2022/03/05 02:48:36;;;;;;;11.30;7.17;;;-4.40;99.90;;;;;;4978372;28;20431;-85
2022/03/05 02:51:02;;;;;;;13.03;6.97;;;-4.40;99.90;;;;;;4979386;28;20524;-85
2022/03/05 02:53:32;;;;;;;14.50;6.43;;;;;;;;;;4978302;28;20217;-85
2022/03/05 02:55:57;;;;;;;14.77;7.03;;;-4.50;99.90;;;;;;4978424;28;20447;-85
2022/03/05 02:58:23;;;;;;;12.40;6.13;;;-4.50;99.90;;;;;;4979433;28;20463;-86
2022/03/05 03:00:50;;;;;;;14.77;7.13;;;-4.60;99.90;;;;;;4979170;28;20195;-85
2022/03/05 03:03:16;;;;;;;12.20;6.50;;;;;;;;;;4979841;28;20251;-86
2022/03/05 03:05:42;;;;;;;18.03;6.97;;;;;;;;;;4979757;28;20419;-85
2022/03/05 03:08:07;;;;;;;18.40;7.43;;;-4.60;99.90;;;;;;4980680;28;20415;-85
2022/03/05 03:10:33;;;;;;;16.37;8.20;;;-2.80;99.90;;;;;;4979698;28;20187;-85
2022/03/05 03:12:59;;;;;;;21.10;10.10;;;-4.80;99.90;;;;;;4979082;28;20192;-85
2022/03/05 03:15:25;;;;;;;20.07;8.70;;;-3.00;99.90;;;;;;4978312;28;20283;-85
2022/03/05 03:17:52;;;;;;;17.63;8.97;;;-4.70;99.90;;;;;;4978469;28;20208;-85
2022/03/05 03:20:23;;;;;;;17.23;7.97;;;-4.70;99.90;;;;;;4978157;28;20423;-85
2022/03/05 03:22:49;;;;;;;16.13;8.23;;;-4.70;99.90;;;;;;4979055;28;20458;-85
2022/03/05 03:25:15;;;;;;;12.83;7.40;;;;;;;;;;4978290;28;20449;-86
2022/03/05 03:27:41;;;;;;;14.40;7.13;;;;;;;;;;4982976;28;20435;-85
2022/03/05 03:30:09;;;;;;;11.90;6.87;;;-4.80;99.90;;;;;;4978213;28;20447;-85
2022/03/05 03:32:35;;;;;;;14.13;6.50;;;-4.70;99.90;;;;;;4978399;28;20431;-85
2022/03/05 03:35:02;;;;;;;12.13;6.63;;;-4.80;99.90;;;;;;4978943;28;20431;-85
2022/03/05 03:37:29;;;;;;;14.00;6.93;;;;;;;;;;4979044;28;20466;-85
2022/03/05 03:40:00;;;;;;;14.00;7.10;;;-4.90;99.90;;;;;;4978331;28;20426;-85
2022/03/05 03:42:26;;;;;;;15.00;6.67;;;-5.00;99.90;;;;;;4977964;28;20412;-86
2022/03/05 03:44:52;;;;;;;14.17;6.37;;;-5.00;99.90;;;;;;4978295;28;20466;-85
2022/03/05 03:47:19;;;;;;;14.33;7.53;;;-5.00;99.90;;;;;;4981051;28;20431;-85
2022/03/05 03:49:45;;;;;;;12.07;7.33;;;;;;;;;;4983557;28;20535;-85
2022/03/05 03:52:13;;;;;;;14.87;7.10;;;-5.00;99.90;;;;;;4982159;28;20447;-85
2022/03/05 03:54:39;;;;;;;13.33;6.60;;;;;;;;;;4983142;28;20463;-85
2022/03/05 03:57:05;;;;;;;10.67;5.93;;;;;;;;;;4982641;28;21000;-85
2022/03/05 03:59:31;;;;;;;13.47;6.87;;;;;;;;;;4983988;28;20506;-85
2022/03/05 04:01:57;;;;;;;15.27;7.33;;;-5.00;99.90;;;;;;4984027;28;20437;-85
2022/03/05 04:04:23;;;;;;;13.67;7.10;;;;;;;;;;4986127;28;20428;-85
2022/03/05 04:09:33;;;;;;;10.60;6.00;;;-5.10;99.90;;;;;;4982729;28;20830;-85
2022/03/05 04:11:59;;;;;;;14.80;7.27;;;-5.10;99.90;;;;;;4981941;28;20422;-85
2022/03/05 04:14:25;;;;;;;14.43;7.23;;;-5.30;99.90;;;;;;4982222;28;20544;-85
2022/03/05 04:16:50;;;;;;;12.93;6.90;;;-5.40;99.90;;;;;;4983170;28;20219;-85
2022/03/05 04:19:16;;;;;;;14.90;6.87;;;-5.60;99.90;;;;;;4980329;28;20212;-85
2022/03/05 04:21:42;;;;;;;13.27;6.73;;;-5.60;99.90;;;;;;4980511;28;20176;-85
2022/03/05 04:24:08;;;;;;;13.37;7.10;;;;;;;;;;4981386;28;20243;-85
2022/03/05 04:26:34;;;;;;;11.23;5.73;;;;;;;;;;4980319;28;20176;-85
2022/03/05 04:28:59;;;;;;;13.17;6.67;;;-5.50;99.90;;;;;;4980471;28;20429;-85
2022/03/05 04:31:25;;;;;;;16.37;7.20;;;-5.40;99.90;;;;;;4981363;28;20511;-86
2022/03/05 04:33:50;;;;;;;18.17;7.37;;;-5.40;99.90;;;;;;4979537;28;20250;-85
2022/03/05 04:36:16;;;;;;;14.90;7.17;;;-5.50;99.90;;;;;;4980320;28;20184;-85
2022/03/05 04:38:42;;;;;;;15.60;6.63;;;-5.50;99.90;;;;;;4981897;28;20204;-85
2022/03/05 04:41:07;;;;;;;13.00;6.00;;;-5.50;99.90;;;;;;4981605;28;20664;-85
2022/03/05 04:43:33;;;;;;;12.83;6.77;;;-5.50;99.90;;;;;;4981007;28;20207;-85
2022/03/05 04:45:59;;;;;;;17.23;7.60;;;-5.50;99.90;;;;;;4980367;28;20285;-85
2022/03/05 04:48:24;;;;;;;12.73;6.47;;;-5.50;99.90;;;;;;4981075;28;20196;-85
2022/03/05 04:50:50;;;;;;;14.63;7.30;;;-5.60;99.90;;;;;;4981089;28;20191;-85
2022/03/05 04:53:19;;;;;;;14.40;6.83;;;-5.60;99.90;;;;;;4980314;28;20267;-85
2022/03/05 04:55:45;;;;;;;12.53;6.63;;;-5.60;99.90;;;;;;4980600;28;20223;-84
2022/03/05 04:58:11;;;;;;;11.57;6.90;;;-5.60;99.90;;;;;;4980328;28;20498;-84
2022/03/05 05:00:37;;;;;;;14.57;7.73;;;-5.60;99.90;;;;;;4983950;28;20422;-84
2022/03/05 05:03:03;;;;;;;12.80;6.77;;;-5.60;99.90;;;;;;4981651;28;20175;-85
2022/03/05 05:05:29;;;;;;;13.50;7.27;;;-5.60;99.90;;;;;;4982000;28;20615;-84
2022/03/05 05:07:54;;;;;;;14.63;7.70;;;-5.60;99.90;;;;;;4984349;28;20206;-84
2022/03/05 05:10:20;;;;;;;13.10;6.57;;;-5.60;99.90;;;;;;4988109;28;20187;-84
2022/03/05 05:12:45;;;;;;;11.00;6.37;;;-5.60;99.90;;;;;;4980606;28;20171;-85
2022/03/05 05:15:11;;;;;;;11.60;6.83;;;-3.90;99.90;;;;;;4981134;28;20225;-84
2022/03/05 05:17:37;;;;;;;14.67;7.07;;;-5.70;99.90;;;;;;4979561;28;20202;-84
2022/03/05 05:20:08;;;;;;;13.73;7.50;;;-5.70;99.90;;;;;;4979125;28;20416;-85
2022/03/05 05:22:34;;;;;;;13.57;6.80;;;-5.80;99.90;;;;;;4981085;28;20178;-85
2022/03/05 05:25:00;;;;;;;15.50;7.53;;;-4.10;99.90;;;;;;4981547;28;20435;-84
2022/03/05 05:27:26;;;;;;;15.07;6.97;;;-6.10;99.90;;;;;;4980147;28;20649;-85
2022/03/05 05:29:52;;;;;;;16.33;7.50;;;-6.10;99.90;;;;;;4980088;28;20430;-85
2022/03/05 05:32:18;;;;;;;14.43;7.70;;;-6.10;99.90;;;;;;4979834;28;20235;-84
2022/03/05 05:34:44;;;;;;;14.90;7.97;;;-6.00;99.90;;;;;;4980662;28;20337;-85
2022/03/05 05:37:10;;;;;;;14.60;7.80;;;-6.00;99.90;;;;;;4980907;28;20408;-85
2022/03/05 05:39:35;;;;;;;12.20;7.47;;;-6.00;99.90;;;;;;4980723;28;20203;-85
2022/03/05 05:42:02;;;;;;;17.23;7.33;;;-6.00;99.90;;;;;;4979856;28;20729;-84
2022/03/05 05:44:27;;;;;;;18.40;7.83;;;-6.00;99.90;;;;;;4978657;28;20227;-85
2022/03/05 05:46:53;;;;;;;14.87;7.90;;;-6.00;99.90;;;;;;4979408;28;20433;-85
2022/03/05 05:49:19;;;;;;;13.70;7.60;;;-6.00;99.90;;;;;;4980269;28;20211;-85
2022/03/05 05:51:45;;;;;;;15.43;8.27;;;-6.00;99.90;;;;;;4979546;28;20210;-85
2022/03/05 05:54:10;;;;;;;22.10;8.17;;;-5.90;99.90;;;;;;4979917;28;20971;-85
2022/03/05 05:56:36;;;;;;;13.17;7.40;;;-6.00;99.90;;;;;;4980378;28;20167;-85
2022/03/05 05:59:04;;;;;;;14.40;7.53;;;-6.00;99.90;;;;;;4981331;28;20205;-85
2022/03/05 06:01:29;;;;;;;18.63;8.00;;;-5.90;99.90;;;;;;4985186;28;20199;-85
2022/03/05 06:03:55;;;;;;;19.17;8.67;;;-5.90;99.90;;;;;;4980407;28;20439;-86
2022/03/05 06:06:22;;;;;;;16.93;7.20;;;-5.90;99.90;;;;;;4984307;28;20210;-85
2022/03/05 06:08:48;;;;;;;15.50;8.13;;;-4.10;99.90;;;;;;4980384;28;20269;-85
2022/03/05 06:11:13;;;;;;;17.70;8.17;;;-6.00;99.90;;;;;;4984819;28;20451;-85
2022/03/05 06:13:39;;;;;;;17.80;8.07;;;-6.00;99.90;;;;;;4982911;28;20204;-85
2022/03/05 06:16:05;;;;;;;17.87;8.63;;;-6.00;99.90;;;;;;4982725;28;20219;-86
2022/03/05 06:18:31;;;;;;;17.17;9.20;;;-4.10;99.90;;;;;;4980450;28;20759;-85
2022/03/05 06:20:57;;;;;;;17.87;8.57;;;-5.80;99.90;;;;;;4982076;28;20439;-85
2022/03/05 06:23:23;;;;;;;16.87;8.57;;;-5.80;99.90;;;;;;4982290;28;20198;-85
2022/03/05 06:25:51;;;;;;;17.17;9.27;;;-4.20;99.90;;;;;;4984337;28;20211;-86
2022/03/05 06:28:17;;;;;;;16.27;8.50;;;-5.90;99.90;;;;;;4982496;28;20412;-85
2022/03/05 06:30:42;;;;;;;19.57;10.20;;;-5.90;99.90;;;;;;4982480;28;20431;-85
2022/03/05 06:33:11;;;;;;;20.63;8.87;;;-5.80;99.90;;;;;;4983410;28;20503;-85
2022/03/05 06:35:37;;;;;;;20.07;9.70;;;-5.70;99.90;;;;;;4980910;28;20241;-85
2022/03/05 06:38:03;;;;;;;23.53;10.17;;;-5.70;99.90;;;;;;4980515;28;20466;-85
2022/03/05 06:40:28;;;;;;;20.27;10.27;;;-5.60;99.90;;;;;;4980724;28;20179;-85
2022/03/05 06:42:55;;;;;;;20.90;10.77;;;-5.50;99.90;;;;;;4979647;28;20187;-85
2022/03/05 06:45:21;;;;;;;28.00;12.43;;;-5.40;99.90;;;;;;4979897;28;20207;-85
2022/03/05 06:47:46;;;;;;;20.33;10.83;;;-5.30;99.90;;;;;;4980487;28;20442;-85
2022/03/05 06:50:12;;;;;;;21.83;11.57;;;-5.20;99.90;;;;;;4979890;28;20852;-85
2022/03/05 06:52:38;;;;;;;25.47;12.70;;;-5.00;99.90;;;;;;4979705;28;20187;-85
2022/03/05 06:55:05;;;;;;;29.53;11.33;;;-4.90;99.90;;;;;;4981596;28;20219;-85
2022/03/05 06:57:30;;;;;;;22.23;11.23;;;-4.80;99.90;;;;;;4981123;28;20238;-85
2022/03/05 06:59:56;;;;;;;22.03;11.33;;;-4.70;99.90;;;;;;4980557;28;20502;-85
2022/03/05 07:02:22;;;;;;;20.87;11.23;;;-4.60;99.90;;;;;;4980158;28;20180;-85
2022/03/05 07:04:49;;;;;;;26.57;12.67;;;-4.40;99.90;;;;;;4980695;28;20204;-85
2022/03/05 07:07:15;;;;;;;21.47;12.07;;;-4.30;99.90;;;;;;4982030;28;20172;-85
2022/03/05 07:09:40;;;;;;;25.23;11.70;;;-4.20;99.90;;;;;;4980271;28;20427;-85
2022/03/05 07:12:07;;;;;;;24.33;12.60;;;-4.10;99.90;;;;;;4979591;28;20427;-85
2022/03/05 07:14:32;;;;;;;24.60;11.37;;;-4.00;99.90;;;;;;4979375;28;20211;-85
2022/03/05 07:16:58;;;;;;;25.20;11.77;;;-4.00;99.90;;;;;;4982232;28;20435;-85
2022/03/05 07:19:24;;;;;;;26.33;12.30;;;-3.90;99.90;;;;;;4980222;28;20209;-87
2022/03/05 07:21:50;;;;;;;27.03;12.63;;;-3.80;99.90;;;;;;4984704;28;20180;-84
2022/03/05 07:24:16;;;;;;;24.03;11.77;;;-3.60;99.90;;;;;;4987697;28;20227;-85
2022/03/05 07:26:41;;;;;;;24.77;13.03;;;-3.60;99.90;;;;;;4985931;28;20177;-86
2022/03/05 07:29:07;;;;;;;27.47;11.70;;;-3.50;99.90;;;;;;4985090;28;20435;-86
2022/03/05 07:31:33;;;;;;;21.97;12.53;;;-3.00;99.90;;;;;;4983200;28;20270;-84
2022/03/05 07:33:58;;;;;;;26.47;12.67;;;-3.40;99.90;;;;;;4983701;28;20275;-86
2022/03/05 07:36:24;;;;;;;26.23;12.83;;;-3.30;99.90;;;;;;4982899;28;20275;-86
2022/03/05 07:38:51;;;;;;;24.00;12.07;;;-3.30;99.90;;;;;;4984272;28;20569;-86
2022/03/05 07:41:18;;;;;;;22.87;11.70;;;-3.10;99.90;;;;;;4985175;28;20176;-86
2022/03/05 07:43:44;;;;;;;24.83;12.67;;;-3.00;99.90;;;;;;4983056;28;20556;-87
2022/03/05 07:46:10;;;;;;;23.13;12.77;;;-2.90;99.90;;;;;;4983444;28;20436;-86
2022/03/05 07:48:35;;;;;;;25.70;13.53;;;-2.60;99.90;;;;;;4982667;28;20218;-86
2022/03/05 07:51:02;;;;;;;25.07;12.47;;;-2.30;99.90;;;;;;4984355;28;20521;-86
2022/03/05 07:53:33;;;;;;;27.03;13.37;;;-1.80;99.90;;;;;;4982918;28;20208;-86
2022/03/05 07:55:59;;;;;;;25.03;13.00;;;-1.10;99.90;;;;;;4982462;28;20890;-86
2022/03/05 07:58:25;;;;;;;22.70;12.17;;;-0.50;99.90;;;;;;4981815;28;20459;-86
2022/03/05 08:00:50;;;;;;;21.47;12.17;;;1.10;99.90;;;;;;4982539;28;20424;-86
2022/03/05 08:03:16;;;;;;;23.90;13.17;;;0.70;99.90;;;;;;4988045;28;20186;-86
2022/03/05 08:05:43;;;;;;;22.30;13.13;;;1.40;99.90;;;;;;4996767;28;20196;-85
2022/03/05 08:08:09;;;;;;;25.50;12.47;;;1.80;99.90;;;;;;4984338;28;20199;-86
2022/03/05 08:10:35;;;;;;;23.13;13.20;;;2.00;99.90;;;;;;4991551;28;20416;-85
2022/03/05 08:13:01;;;;;;;26.57;14.27;;;3.00;99.90;;;;;;4985775;28;20442;-85
2022/03/05 08:15:26;;;;;;;24.57;13.50;;;3.10;99.90;;;;;;4983471;28;20735;-86
2022/03/05 08:17:58;;;;;;;21.53;13.83;;;3.40;99.90;;;;;;4984000;28;20696;-85
2022/03/05 08:20:27;;;;;;;22.17;13.77;;;3.90;99.90;;;;;;4983184;28;20534;-86
2022/03/05 08:22:53;;;;;;;20.47;12.67;;;4.20;99.90;;;;;;4980182;28;20185;-86
2022/03/05 08:25:19;;;;;;;21.53;13.10;;;4.40;99.90;;;;;;4979315;28;20205;-86
2022/03/05 08:27:46;;;;;;;21.07;13.33;;;4.20;99.90;;;;;;4982425;28;20184;-85
2022/03/05 08:30:12;;;;;;;19.57;12.57;;;4.10;99.90;;;;;;4980168;28;20182;-86
2022/03/05 08:32:38;;;;;;;18.43;12.13;;;3.30;99.90;;;;;;4978077;28;20277;-85
2022/03/05 08:35:05;;;;;;;22.37;12.93;;;2.60;99.90;;;;;;4981600;28;20206;-86
2022/03/05 08:37:31;;;;;;;20.67;12.80;;;2.60;99.90;;;;;;4982950;28;20192;-86
2022/03/05 08:39:57;;;;;;;19.30;13.13;;;2.80;99.90;;;;;;4982450;28;20317;-86
2022/03/05 08:42:23;;;;;;;19.70;12.13;;;3.20;99.90;;;;;;4985103;28;20178;-86
2022/03/05 08:44:49;;;;;;;19.63;12.33;;;3.60;99.90;;;;;;4982911;28;20584;-85
2022/03/05 08:47:15;;;;;;;18.67;12.57;;;4.00;99.90;;;;;;4984147;28;20230;-84
2022/03/05 08:49:41;;;;;;;18.10;11.80;;;4.10;97.60;;;;;;4981507;28;20185;-85
2022/03/05 08:52:07;;;;;;;21.67;11.80;;;4.40;98.80;;;;;;4980089;28;20266;-84
2022/03/05 08:54:32;;;;;;;16.40;10.83;;;4.50;97.70;;;;;;4979060;28;20546;-84
2022/03/05 08:56:58;;;;;;;18.07;12.07;;;4.70;96.10;;;;;;4978482;28;20173;-83
2022/03/05 08:59:23;;;;;;;18.80;11.83;;;4.70;95.80;;;;;;4980765;28;20215;-85
2022/03/05 09:01:49;;;;;;;18.47;11.53;;;4.60;96.70;;;;;;4980100;28;20180;-85
2022/03/05 09:04:15;;;;;;;20.57;13.90;;;5.10;95.60;;;;;;4978443;28;20204;-86
2022/03/05 09:06:41;;;;;;;16.07;11.40;;;5.50;94.10;;;;;;4981071;28;20177;-86
2022/03/05 09:09:07;;;;;;;16.90;11.70;;;5.60;93.50;;;;;;4980476;28;20184;-82
2022/03/05 09:11:34;;;;;;;16.80;11.57;;;5.50;92.90;;;;;;4979799;28;20180;-84
2022/03/05 09:14:00;;;;;;;18.23;11.83;;;5.40;92.30;;;;;;4978889;28;20239;-85
2022/03/05 09:16:25;;;;;;;20.00;12.27;;;5.40;92.50;;;;;;4980250;28;20564;-85
2022/03/05 09:18:52;;;;;;;18.37;12.37;;;5.20;93.30;;;;;;4978451;28;20258;-85
2022/03/05 09:21:17;;;;;;;19.23;11.90;;;5.40;93.40;;;;;;4980827;28;20180;-85
2022/03/05 09:23:43;;;;;;;18.03;12.40;;;5.50;92.60;;;;;;4980396;28;20207;-86
2022/03/05 09:26:09;;;;;;;15.27;11.93;;;5.50;92.00;;;;;;4980391;28;20252;-86
2022/03/05 09:28:36;;;;;;;17.03;12.13;;;5.30;91.80;;;;;;4981389;28;20180;-87
2022/03/05 09:31:02;;;;;;;17.30;12.23;;;5.20;91.10;;;;;;4979649;28;20180;-86
2022/03/05 09:33:28;;;;;;;16.43;11.67;;;5.50;91.40;;;;;;4980682;28;20277;-87
2022/03/05 09:35:54;;;;;;;20.77;11.10;;;5.90;92.00;;;;;;4979792;28;20182;-85
2022/03/05 09:38:19;;;;;;;17.90;10.90;;;5.50;86.80;;;;;;4980493;28;20221;-84
2022/03/05 09:40:45;;;;;;;16.00;10.93;;;5.60;86.90;;;;;;4979699;28;20186;-84
2022/03/05 09:43:11;;;;;;;17.50;11.07;;;5.70;85.10;;;;;;4979003;28;20212;-84
2022/03/05 09:45:38;;;;;;;15.13;11.07;;;5.20;84.50;;;;;;4981196;28;20196;-92
2022/03/05 09:48:04;;;;;;;15.30;10.93;;;5.00;87.00;;;;;;4983194;28;20184;-86
2022/03/05 09:50:32;;;;;;;15.07;10.20;;;5.70;88.00;;;;;;4981401;28;20188;-86
2022/03/05 09:53:01;;;;;;;15.07;11.00;;;5.60;85.20;;;;;;4980917;28;20649;-87
2022/03/05 09:55:27;;;;;;;14.17;9.90;;;5.80;83.60;;;;;;4980370;28;20251;-87
2022/03/05 09:57:53;;;;;;;17.03;10.27;;;5.80;82.00;;;;;;4980713;28;20208;-87
2022/03/05 10:00:19;;;;;;;15.03;10.17;;;6.00;82.60;;;;;;4979923;28;20176;-84
2022/03/05 10:02:48;;;;;;;14.60;10.23;;;5.70;83.40;;;;;;4979409;28;20271;-86
2022/03/05 10:05:26;;;;;;;13.03;9.83;;;6.00;82.00;;;;;;4979148;28;20268;-85
2022/03/05 10:08:15;;;;;;;13.17;9.37;;;6.00;79.70;;;;;;4979679;28;20226;-85
2022/03/05 10:10:50;;;;;;;13.80;9.17;;;5.70;76.80;;;;;;4979112;28;20702;-84
2022/03/05 10:13:28;;;;;;;11.40;8.43;;;5.80;74.80;;;;;;4980413;28;20168;-83
2022/03/05 10:16:00;;;;;;;15.57;10.60;;;5.80;74.70;;;;;;4981161;28;20631;-86
2022/03/05 10:18:36;;;;;;;14.80;11.23;;;5.80;75.10;;;;;;4979816;28;20222;-83
2022/03/05 10:21:05;;;;;;;12.17;9.10;;;6.20;78.70;;;;;;4980101;28;20172;-84
2022/03/05 10:23:36;;;;;;;13.73;9.13;;;6.70;74.70;;;;;;4980207;28;20250;-86
2022/03/05 10:26:04;;;;;;;14.90;9.33;;;6.60;72.40;;;;;;4980068;28;20167;-86
2022/03/05 10:28:30;;;;;;;14.30;9.83;;;6.70;71.50;;;;;;4979185;28;20668;-83
2022/03/05 10:31:11;;;;;;;13.37;9.00;;;7.10;71.60;;;;;;4979525;28;20215;-84
2022/03/05 10:33:38;;;;;;;13.47;10.43;;;7.60;71.70;;;;;;4979188;28;20204;-84
2022/03/05 10:36:24;;;;;;;13.73;9.13;;;7.90;69.00;;;;;;4980209;28;20261;-84
2022/03/05 10:38:56;;;;;;;12.93;9.97;;;7.70;68.10;;;;;;4979643;28;20287;-84
2022/03/05 10:41:33;;;;;;;15.07;10.03;;;7.20;70.60;;;;;;4978098;28;20377;-85
2022/03/05 10:44:07;;;;;;;16.13;10.50;;;7.10;69.10;;;;;;4979485;28;20256;-84
2022/03/05 10:47:00;;;;;;;12.50;9.23;;;7.30;73.50;;;;;;4977652;28;20188;-85
2022/03/05 10:49:36;;;;;;;13.20;9.37;;;7.20;68.20;;;;;;4975464;28;20549;-84
2022/03/05 10:52:08;;;;;;;12.40;9.70;;;6.70;70.00;;;;;;4977673;28;20177;-83
2022/03/05 10:54:42;;;;;;;11.63;9.57;;;7.00;69.60;;;;;;4977761;28;20227;-84
2022/03/05 10:57:22;;;;;;;12.60;9.73;;;7.20;69.50;;;;;;4981088;28;20666;-84
2022/03/05 10:59:49;;;;;;;10.93;8.53;;;7.70;70.30;;;;;;4982202;28;20181;-84
2022/03/05 11:02:16;;;;;;;10.80;8.13;;;7.70;66.50;;;;;;4980437;28;20186;-83
2022/03/05 11:04:43;;;;;;;11.23;8.43;;;7.30;62.60;;;;;;4981586;28;20258;-84
2022/03/05 11:07:09;;;;;;;11.10;8.27;;;7.20;65.30;;;;;;4980694;28;20185;-81
2022/03/05 11:09:37;;;;;;;8.03;6.37;;;7.70;66.20;;;;;;4982228;28;20181;-84
2022/03/05 11:12:04;;;;;;;9.03;7.23;;;7.70;61.50;;;;;;4983704;28;20538;-84
2022/03/05 11:14:29;;;;;;;11.50;7.93;;;7.60;60.60;;;;;;4983588;28;20194;-92
2022/03/05 11:16:56;;;;;;;9.17;7.27;;;7.80;60.80;;;;;;4983604;28;20187;-84
2022/03/05 11:19:24;;;;;;;11.20;8.00;;;7.90;59.60;;;;;;4983252;28;20217;-84
2022/03/05 11:21:49;;;;;;;9.20;6.53;;;8.10;59.90;;;;;;4981120;28;20179;-85
2022/03/05 11:24:18;;;;;;;9.47;7.30;;;8.50;61.00;;;;;;4980738;28;20204;-85
2022/03/05 11:26:51;;;;;;;9.10;7.47;;;8.40;57.70;;;;;;4982382;28;20185;-85
2022/03/05 11:29:19;;;;;;;9.80;7.60;;;8.50;57.40;;;;;;4983891;28;20194;-84
2022/03/05 11:31:47;;;;;;;9.97;7.90;;;8.00;56.70;;;;;;4982568;28;20186;-84
2022/03/05 11:34:23;;;;;;;10.67;8.13;;;8.00;58.60;;;;;;4983065;28;20245;-83
2022/03/05 11:36:51;;;;;;;11.20;7.27;;;8.30;57.40;;;;;;4984330;28;20184;-87
2022/03/05 11:39:37;;;;;;;9.23;7.33;;;7.80;57.60;;;;;;4983107;28;20295;-82
2022/03/05 11:42:05;;;;;;;9.70;7.67;;;8.00;58.30;;;;;;4983404;28;20153;-82
2022/03/05 11:44:36;;;;;;;10.53;8.27;;;7.80;59.00;;;;;;4983481;28;20207;-83
2022/03/05 11:47:21;;;;;;;12.17;8.00;;;8.40;58.80;;;;;;4982590;28;20181;-84
2022/03/05 11:50:08;;;;;;;9.43;7.47;;;8.00;58.10;;;;;;4983134;28;20187;-84
2022/03/05 11:52:42;;;;;;;9.50;6.80;;;8.70;58.00;;;;;;4982803;28;20204;-84
2022/03/05 11:55:14;;;;;;;12.30;7.90;;;9.10;56.30;;;;;;4981759;28;20211;-83
2022/03/05 11:57:52;;;;;;;10.50;6.97;;;9.10;55.00;;;;;;4983793;28;20203;-83
2022/03/05 12:00:26;;;;;;;9.37;7.03;;;9.30;54.30;;;;;;4983728;28;20192;-83
2022/03/05 12:02:54;;;;;;;10.30;7.10;;;9.00;53.00;;;;;;4982388;28;20251;-83
2022/03/05 12:05:38;;;;;;;11.60;6.93;;;9.50;56.20;;;;;;4983789;28;20200;-84
2022/03/05 12:08:09;;;;;;;9.17;7.17;;;9.50;53.80;;;;;;4981537;28;20181;-84
2022/03/05 12:10:38;;;;;;;9.13;7.03;;;9.70;52.80;;;;;;4983271;28;20180;-84
2022/03/05 12:13:06;;;;;;;8.23;7.13;;;9.80;51.70;;;;;;4981968;28;20196;-84
2022/03/05 12:15:39;;;;;;;9.90;7.20;;;10.00;50.50;;;;;;4983389;28;20235;-84
2022/03/05 12:18:06;;;;;;;8.77;6.40;;;9.90;52.20;;;;;;4982202;28;20681;-84
2022/03/05 12:20:38;;;;;;;10.23;7.73;;;9.90;53.30;;;;;;4981956;28;20534;-84
2022/03/05 12:23:30;;;;;;;8.93;7.13;;;9.40;53.30;;;;;;4982311;28;20184;-84
2022/03/05 12:26:01;;;;;;;8.17;7.00;;;10.30;50.80;;;;;;4980651;28;20304;-84
2022/03/05 12:28:38;;;;;;;9.37;7.40;;;10.60;51.10;;;;;;4984173;28;20160;-86
2022/03/05 12:31:04;;;;;;;9.90;7.67;;;10.70;50.40;;;;;;4984450;28;20164;-85
2022/03/05 12:33:33;;;;;;;9.27;7.23;;;10.70;50.20;;;;;;4984148;28;20200;-86
2022/03/05 12:35:58;;;;;;;8.40;6.40;;;10.90;49.60;;;;;;4985232;28;20190;-86
2022/03/05 12:38:24;;;;;;;9.27;7.00;;;11.40;47.30;;;;;;4984016;28;20252;-85
2022/03/05 12:40:50;;;;;;;10.13;7.27;;;11.10;47.80;;;;;;4982867;28;20180;-86
2022/03/05 12:43:16;;;;;;;9.83;7.87;;;10.80;47.60;;;;;;4982761;28;20579;-85
2022/03/05 12:45:43;;;;;;;9.27;7.30;;;10.80;49.10;;;;;;4982182;28;20184;-85
2022/03/05 12:48:16;;;;;;;9.53;7.83;;;11.20;48.60;;;;;;4982092;28;20180;-86